Time;durP1;ratioP1;P1;durP2;ratioP2;P2;SDS_P1;SDS_P2;PMS_P1;PMS_P2;Temp;Humidity;BMP_temperature;BMP_pressure;BME280_temperature;BME280_humidity;BME280_pressure;Samples;Min_cycle;Max_cycle;Signal;HPM_P1;HPM_P2
2023/01/29 00:00:09;;;;;;;1.40;1.30;;;19.60;48.20;;;;;;4996376;28;20286;-69
2023/01/29 00:02:38;;;;;;;1.67;1.58;;;19.60;48.20;;;;;;4997051;28;20203;-69
2023/01/29 00:05:06;;;;;;;1.58;1.48;;;19.70;48.30;;;;;;4996535;28;20195;-69
2023/01/29 00:07:32;;;;;;;1.70;1.60;;;19.60;48.20;;;;;;4980322;28;20257;-69
2023/01/29 00:09:57;;;;;;;1.60;1.50;;;19.60;48.30;;;;;;4980378;28;20187;-69
2023/01/29 00:12:23;;;;;;;1.75;1.48;;;19.60;48.20;;;;;;4996178;28;20188;-69
2023/01/29 00:14:49;;;;;;;1.48;1.38;;;19.70;48.30;;;;;;4977174;28;20196;-69
2023/01/29 00:17:15;;;;;;;1.45;1.35;;;19.70;48.30;;;;;;5011563;23;20240;-67
2023/01/29 00:19:40;;;;;;;1.60;1.50;;;19.60;48.20;;;;;;4989021;28;20654;-67
2023/01/29 00:22:06;;;;;;;1.77;1.40;;;19.70;48.30;;;;;;5009460;28;20213;-67
2023/01/29 00:24:32;;;;;;;1.60;1.50;;;19.70;48.30;;;;;;4965923;28;20182;-67
2023/01/29 00:26:57;;;;;;;1.67;1.55;;;19.70;48.30;;;;;;4990803;28;20213;-67
2023/01/29 00:29:24;;;;;;;1.70;1.60;;;19.60;48.20;;;;;;4985435;28;20189;-67
2023/01/29 00:31:50;;;;;;;1.52;1.42;;;19.70;48.30;;;;;;4990222;28;20195;-67
2023/01/29 00:34:16;;;;;;;1.55;1.45;;;19.70;48.30;;;;;;4976843;28;20259;-67
2023/01/29 00:36:43;;;;;;;1.50;1.40;;;19.60;48.20;;;;;;4993549;28;20231;-67
2023/01/29 00:39:09;;;;;;;1.75;1.65;;;19.70;48.30;;;;;;5001206;28;20193;-67
2023/01/29 00:49:50;;;;;;;1.52;1.42;;;19.70;48.20;;;;;;4978073;28;20194;-67
2023/01/29 00:52:25;;;;;;;1.60;1.50;;;19.70;48.20;;;;;;4983900;28;20191;-67
2023/01/29 00:54:53;;;;;;;1.75;1.65;;;19.60;48.10;;;;;;4986073;28;20205;-67
2023/01/29 00:57:19;;;;;;;1.58;1.48;;;19.60;48.20;;;;;;4986061;28;20276;-67
2023/01/29 00:59:45;;;;;;;1.60;1.50;;;19.70;48.20;;;;;;4973102;28;20194;-67
2023/01/29 01:04:55;;;;;;;1.40;1.30;;;19.70;48.20;;;;;;4993303;28;20189;-66
2023/01/29 01:07:22;;;;;;;1.67;1.58;;;19.70;48.20;;;;;;4984019;28;20205;-68
2023/01/29 01:12:34;;;;;;;1.80;1.70;;;19.70;48.20;;;;;;5004835;28;20213;-67
2023/01/29 01:15:00;;;;;;;1.95;1.85;;;19.70;48.20;;;;;;4988832;28;20260;-67
2023/01/29 01:17:26;;;;;;;2.00;1.90;;;19.70;48.20;;;;;;4988860;28;20267;-67
2023/01/29 01:19:51;;;;;;;1.35;1.27;;;19.70;48.10;;;;;;4975256;28;20185;-68
2023/01/29 01:22:17;;;;;;;1.80;1.70;;;19.70;48.20;;;;;;4991228;28;20219;-67
2023/01/29 01:24:43;;;;;;;1.95;1.85;;;19.70;48.10;;;;;;4991618;28;20243;-67
2023/01/29 01:27:09;;;;;;;1.70;1.60;;;19.70;48.10;;;;;;4983734;28;20244;-67
2023/01/29 01:29:35;;;;;;;1.75;1.65;;;19.70;48.10;;;;;;4978694;28;20188;-67
2023/01/29 01:32:01;;;;;;;1.90;1.80;;;19.70;48.10;;;;;;4977645;28;20202;-67
2023/01/29 01:34:27;;;;;;;1.85;1.75;;;19.70;48.10;;;;;;4976535;28;20185;-67
2023/01/29 01:36:55;;;;;;;1.85;1.75;;;19.70;48.10;;;;;;4975074;28;20221;-67
2023/01/29 01:39:21;;;;;;;1.92;1.83;;;19.70;48.10;;;;;;5004413;28;20196;-67
2023/01/29 01:41:47;;;;;;;2.05;1.83;;;19.70;48.10;;;;;;4976560;28;20690;-67
2023/01/29 01:44:55;;;;;;;2.72;2.53;;;19.70;48.10;;;;;;4990325;28;20200;-67
2023/01/29 01:47:37;;;;;;;2.25;2.10;;;19.70;48.10;;;;;;4964283;28;20229;-67
2023/01/29 01:50:28;;;;;;;2.40;2.20;;;19.70;48.10;;;;;;4972050;28;20272;-67
2023/01/29 01:53:03;;;;;;;2.60;2.40;;;19.70;48.10;;;;;;4971963;28;20288;-68
2023/01/29 01:55:33;;;;;;;2.00;1.90;;;19.70;48.10;;;;;;4980186;28;20193;-68
2023/01/29 01:58:15;;;;;;;2.00;1.90;;;19.70;48.10;;;;;;4974978;28;20216;-67
2023/01/29 02:00:41;;;;;;;1.80;1.70;;;19.70;48.10;;;;;;4961290;28;20210;-66
2023/01/29 02:11:37;;;;;;;2.08;1.98;;;19.70;48.20;;;;;;4980854;28;20216;-67
2023/01/29 02:14:03;;;;;;;2.47;2.28;;;19.70;48.10;;;;;;4977492;28;20197;-67
2023/01/29 02:16:29;;;;;;;2.20;2.10;;;19.70;48.00;;;;;;4982958;28;20185;-67
2023/01/29 02:18:55;;;;;;;2.20;2.10;;;19.70;48.10;;;;;;4984602;28;20221;-68
2023/01/29 02:21:48;;;;;;;2.00;1.90;;;19.70;48.10;;;;;;4966241;28;20209;-68
2023/01/29 02:25:08;;;;;;;2.10;2.00;;;19.70;48.10;;;;;;4992137;28;20287;-67
2023/01/29 02:28:21;;;;;;;1.98;1.88;;;19.70;48.00;;;;;;4973314;28;20287;-67
2023/01/29 02:31:08;;;;;;;2.00;1.90;;;19.70;48.10;;;;;;4985952;28;20200;-68
2023/01/29 02:34:19;;;;;;;1.92;1.80;;;19.70;48.00;;;;;;4984244;28;20224;-67
2023/01/29 02:37:08;;;;;;;1.80;1.70;;;19.70;48.00;;;;;;4977697;28;20205;-67
2023/01/29 02:40:24;;;;;;;2.00;1.80;;;19.70;48.10;;;;;;4990807;28;20185;-67
2023/01/29 02:43:17;;;;;;;1.75;1.65;;;19.70;48.00;;;;;;4927672;28;20280;-67
2023/01/29 02:46:16;;;;;;;1.77;1.50;;;19.70;48.10;;;;;;4986298;28;20221;-67
2023/01/29 02:49:15;;;;;;;1.90;1.80;;;19.70;48.10;;;;;;4971379;28;20697;-67
2023/01/29 02:52:18;;;;;;;1.92;1.83;;;19.70;48.10;;;;;;4978583;28;20216;-67
2023/01/29 02:54:50;;;;;;;1.80;1.70;;;19.70;48.10;;;;;;4986980;28;20188;-67
2023/01/29 02:57:30;;;;;;;1.33;1.27;;;19.70;48.10;;;;;;4984792;28;20216;-67
2023/01/29 03:00:01;;;;;;;1.70;1.60;;;19.70;48.10;;;;;;4983304;28;20201;-67
2023/01/29 03:02:49;;;;;;;1.45;1.35;;;19.80;48.20;;;;;;4978147;28;20253;-67
2023/01/29 03:05:27;;;;;;;1.70;1.60;;;19.70;48.10;;;;;;4975093;28;20256;-68
2023/01/29 03:08:05;;;;;;;1.63;1.52;;;19.70;48.00;;;;;;4989853;28;20213;-67
2023/01/29 03:10:45;;;;;;;1.67;1.58;;;19.70;48.10;;;;;;4975113;28;20213;-67
2023/01/29 03:13:35;;;;;;;1.60;1.50;;;19.80;48.10;;;;;;4959615;28;20189;-67
2023/01/29 03:16:14;;;;;;;1.70;1.60;;;19.70;48.10;;;;;;4970180;28;20409;-68
2023/01/29 03:18:51;;;;;;;1.60;1.50;;;19.70;48.10;;;;;;4988432;28;20231;-68
2023/01/29 03:21:50;;;;;;;1.60;1.50;;;19.70;48.10;;;;;;4990838;28;20225;-67
2023/01/29 03:34:15;;;;;;;1.52;1.42;;;19.80;48.20;;;;;;4990742;28;20203;-68
2023/01/29 03:37:00;;;;;;;1.30;1.30;;;19.70;48.20;;;;;;4979657;28;20200;-67
2023/01/29 03:39:28;;;;;;;1.42;1.33;;;19.80;48.20;;;;;;4985550;28;20223;-67
2023/01/29 03:42:07;;;;;;;1.70;1.60;;;19.80;48.20;;;;;;4993771;28;20216;-67
2023/01/29 03:45:13;;;;;;;1.55;1.50;;;19.80;48.20;;;;;;4974604;28;20268;-67
2023/01/29 03:48:22;;;;;;;1.60;1.50;;;19.80;48.20;;;;;;4980519;28;20300;-68
2023/01/29 03:51:21;;;;;;;1.60;1.50;;;19.80;48.20;;;;;;4961271;28;20231;-67
2023/01/29 03:54:12;;;;;;;1.60;1.50;;;19.80;48.10;;;;;;4966327;28;20614;-67
2023/01/29 03:56:59;;;;;;;1.50;1.40;;;19.80;48.10;;;;;;4959270;28;20220;-67
2023/01/29 04:00:14;;;;;;;1.52;1.42;;;19.80;48.20;;;;;;4989096;28;20184;-67
2023/01/29 04:03:13;;;;;;;1.50;1.40;;;19.80;48.20;;;;;;4979748;28;20234;-67
2023/01/29 04:05:57;;;;;;;1.40;1.30;;;19.80;48.10;;;;;;4983340;28;20194;-67
2023/01/29 04:08:34;;;;;;;1.30;1.20;;;19.80;48.20;;;;;;4989933;28;20201;-67
2023/01/29 04:11:09;;;;;;;1.70;1.60;;;19.80;48.10;;;;;;4981875;28;20196;-67
2023/01/29 04:13:36;;;;;;;1.50;1.40;;;19.80;48.10;;;;;;4981799;28;20284;-67
2023/01/29 04:16:08;;;;;;;1.50;1.40;;;19.80;48.10;;;;;;4997807;28;20247;-67
2023/01/29 04:18:58;;;;;;;1.27;1.20;;;19.80;48.10;;;;;;4978500;28;20194;-67
2023/01/29 04:21:33;;;;;;;1.60;1.50;;;19.80;48.20;;;;;;4993387;28;20299;-67
2023/01/29 04:23:59;;;;;;;1.30;1.30;;;19.80;48.10;;;;;;4973664;28;20189;-67
2023/01/29 04:26:59;;;;;;;1.10;1.10;;;19.80;48.10;;;;;;4975874;28;20192;-67
2023/01/29 04:30:15;;;;;;;1.50;1.40;;;19.80;48.10;;;;;;4984728;28;20196;-67
2023/01/29 04:33:16;;;;;;;1.13;1.13;;;19.80;48.10;;;;;;4992801;28;20192;-67
2023/01/29 04:36:05;;;;;;;1.40;1.30;;;19.80;48.10;;;;;;4985996;28;20275;-67
2023/01/29 04:38:55;;;;;;;1.30;1.20;;;19.80;48.10;;;;;;4992747;28;20208;-67
2023/01/29 04:41:36;;;;;;;1.50;1.40;;;19.70;48.10;;;;;;4977533;28;20598;-67
2023/01/29 04:44:22;;;;;;;1.40;1.30;;;19.70;48.00;;;;;;4962726;28;20196;-67
2023/01/29 04:47:07;;;;;;;1.50;1.40;;;19.80;48.10;;;;;;4987795;28;20697;-67
2023/01/29 04:50:13;;;;;;;1.30;1.20;;;19.80;48.10;;;;;;4997531;28;20193;-67
2023/01/29 04:52:59;;;;;;;1.30;1.20;;;19.70;48.00;;;;;;4973057;28;20197;-66
2023/01/29 04:55:28;;;;;;;1.20;1.20;;;19.70;48.00;;;;;;4975225;28;20189;-67
2023/01/29 04:58:11;;;;;;;1.38;1.30;;;19.70;48.00;;;;;;4961992;28;20304;-67
2023/01/29 05:00:42;;;;;;;1.25;1.15;;;19.70;48.00;;;;;;4972995;28;20193;-66
2023/01/29 05:03:14;;;;;;;1.63;1.15;;;19.70;48.00;;;;;;5002108;28;20198;-68
2023/01/29 05:05:45;;;;;;;1.20;1.10;;;19.70;48.00;;;;;;4993152;28;20216;-67
2023/01/29 05:08:16;;;;;;;1.25;1.20;;;19.70;48.00;;;;;;4959844;28;20231;-67
2023/01/29 05:10:43;;;;;;;1.30;1.20;;;19.70;47.90;;;;;;4975706;28;20188;-67
2023/01/29 05:13:13;;;;;;;1.15;1.15;;;19.70;48.00;;;;;;4975747;28;20177;-67
2023/01/29 05:15:52;;;;;;;0.80;0.80;;;19.70;47.90;;;;;;4989019;28;20198;-67
2023/01/29 05:18:18;;;;;;;1.00;1.00;;;19.70;48.00;;;;;;4972291;28;20367;-67
2023/01/29 05:20:46;;;;;;;1.13;1.13;;;19.80;48.00;;;;;;4998074;28;20777;-67
2023/01/29 05:23:21;;;;;;;1.00;1.00;;;19.70;48.00;;;;;;4978073;28;20555;-67
2023/01/29 05:25:50;;;;;;;1.83;1.20;;;19.70;47.90;;;;;;4986745;28;20188;-67
2023/01/29 05:28:16;;;;;;;1.35;1.27;;;19.70;47.90;;;;;;4990855;28;20213;-67
2023/01/29 05:30:45;;;;;;;1.08;1.08;;;19.70;47.90;;;;;;4981422;28;20192;-67
2023/01/29 05:33:15;;;;;;;1.33;1.25;;;19.70;47.90;;;;;;4980291;28;20186;-67
2023/01/29 05:35:41;;;;;;;0.98;0.98;;;19.70;47.90;;;;;;4973774;28;20193;-68
2023/01/29 05:38:08;;;;;;;1.35;1.25;;;19.70;47.90;;;;;;5001026;28;20217;-67
2023/01/29 05:40:34;;;;;;;0.93;0.93;;;19.70;47.90;;;;;;4991292;28;20189;-67
2023/01/29 05:43:00;;;;;;;1.00;1.00;;;19.70;47.90;;;;;;4972352;28;20244;-67
2023/01/29 05:45:26;;;;;;;1.20;1.13;;;19.70;47.90;;;;;;4964995;28;20190;-67
2023/01/29 05:47:57;;;;;;;1.10;1.10;;;19.70;47.90;;;;;;4969513;28;20217;-67
2023/01/29 05:50:24;;;;;;;0.93;0.93;;;19.70;47.90;;;;;;4979825;28;20560;-66
2023/01/29 05:52:59;;;;;;;1.20;1.20;;;19.70;47.90;;;;;;4988234;28;20212;-67
2023/01/29 05:55:28;;;;;;;1.08;1.00;;;19.70;47.90;;;;;;4990063;28;20201;-67
2023/01/29 05:57:54;;;;;;;1.13;1.10;;;19.70;47.80;;;;;;4988113;28;20671;-67
2023/01/29 06:00:21;;;;;;;1.27;1.17;;;19.70;47.90;;;;;;4963838;28;20221;-68
2023/01/29 06:02:47;;;;;;;1.13;1.13;;;19.70;47.90;;;;;;4986292;28;20217;-67
2023/01/29 06:05:12;;;;;;;1.20;1.20;;;19.70;47.80;;;;;;4967234;28;20195;-67
2023/01/29 06:07:43;;;;;;;1.00;1.00;;;19.70;47.90;;;;;;4971671;28;20210;-67
2023/01/29 06:10:15;;;;;;;1.10;1.00;;;19.70;47.90;;;;;;4987432;28;20189;-67
2023/01/29 06:12:42;;;;;;;0.90;0.90;;;19.70;47.90;;;;;;4955133;28;20247;-67
2023/01/29 06:15:10;;;;;;;1.17;1.08;;;19.70;47.90;;;;;;4955770;28;20193;-67
2023/01/29 06:17:36;;;;;;;1.17;1.10;;;19.70;47.80;;;;;;5008449;23;20259;-69
2023/01/29 06:20:03;;;;;;;0.90;0.90;;;19.70;47.90;;;;;;4959273;28;20189;-69
2023/01/29 06:22:28;;;;;;;0.98;0.98;;;19.70;47.90;;;;;;4958199;28;20580;-69
2023/01/29 06:24:54;;;;;;;1.10;1.10;;;19.70;47.80;;;;;;4979210;28;20729;-69
2023/01/29 06:27:20;;;;;;;1.20;0.90;;;19.70;47.90;;;;;;4950177;28;20225;-72
2023/01/29 06:29:45;;;;;;;1.10;1.10;;;19.70;47.90;;;;;;4932581;28;20193;-71
2023/01/29 06:32:11;;;;;;;1.15;1.15;;;19.70;47.80;;;;;;4952086;29;20667;-73
2023/01/29 06:34:37;;;;;;;0.98;0.98;;;19.70;47.90;;;;;;4963720;28;20190;-70
2023/01/29 06:37:03;;;;;;;1.23;1.15;;;19.70;47.90;;;;;;4952107;29;20233;-70
2023/01/29 06:39:28;;;;;;;1.00;1.00;;;19.70;47.90;;;;;;4968305;28;20214;-71
2023/01/29 06:41:54;;;;;;;1.10;1.10;;;19.70;47.90;;;;;;4939520;29;20272;-71
2023/01/29 06:44:20;;;;;;;1.17;1.17;;;19.70;47.90;;;;;;4941778;28;20222;-71
2023/01/29 06:46:46;;;;;;;1.27;1.23;;;19.70;47.90;;;;;;4933912;28;20189;-73
2023/01/29 06:49:12;;;;;;;1.23;1.13;;;19.70;47.90;;;;;;4939545;29;20214;-71
2023/01/29 06:51:38;;;;;;;0.90;0.90;;;19.70;47.80;;;;;;4959786;28;20205;-71
2023/01/29 06:54:05;;;;;;;1.00;1.00;;;19.70;47.80;;;;;;4950538;28;20201;-71
2023/01/29 06:56:30;;;;;;;1.38;1.27;;;19.70;47.80;;;;;;4947242;28;20201;-71
2023/01/29 06:58:56;;;;;;;1.20;1.20;;;19.70;47.90;;;;;;4968012;28;20226;-72
2023/01/29 07:01:22;;;;;;;1.33;1.23;;;19.70;47.80;;;;;;4952596;28;20218;-71
2023/01/29 07:03:50;;;;;;;1.10;1.10;;;19.70;47.80;;;;;;4954615;28;20245;-71
2023/01/29 07:06:17;;;;;;;1.05;1.00;;;19.70;47.80;;;;;;4969705;28;20870;-71
2023/01/29 07:08:42;;;;;;;1.05;1.05;;;19.70;47.80;;;;;;4960831;28;20210;-71
2023/01/29 07:11:08;;;;;;;1.23;1.20;;;19.70;47.80;;;;;;4950486;28;20197;-70
2023/01/29 07:13:34;;;;;;;1.02;1.00;;;19.70;47.80;;;;;;4936440;28;20198;-71
2023/01/29 07:16:01;;;;;;;1.10;1.10;;;19.70;47.90;;;;;;4947503;28;20251;-70
2023/01/29 07:18:28;;;;;;;1.00;1.00;;;19.70;47.80;;;;;;4949139;28;20226;-71
2023/01/29 07:20:55;;;;;;;1.13;1.13;;;19.70;47.90;;;;;;4949212;28;20737;-71
2023/01/29 07:23:22;;;;;;;1.15;1.15;;;19.70;47.90;;;;;;4948479;28;20187;-71
2023/01/29 07:25:50;;;;;;;1.15;1.10;;;19.60;47.80;;;;;;4928882;28;20245;-73
2023/01/29 07:28:18;;;;;;;1.52;1.42;;;19.70;47.80;;;;;;4967117;28;20205;-71
2023/01/29 07:30:43;;;;;;;1.27;1.17;;;19.60;47.80;;;;;;4950438;28;20698;-73
2023/01/29 07:33:10;;;;;;;1.10;1.10;;;19.60;47.70;;;;;;4931180;28;20208;-70
2023/01/29 07:35:41;;;;;;;0.90;0.90;;;19.60;47.70;;;;;;4948185;28;20190;-71
2023/01/29 07:38:09;;;;;;;1.25;1.15;;;19.60;47.70;;;;;;4951879;28;20411;-70
2023/01/29 07:40:35;;;;;;;1.40;1.30;;;19.60;47.60;;;;;;4951857;28;20211;-70
2023/01/29 07:43:05;;;;;;;1.10;1.00;;;19.60;47.70;;;;;;4955861;28;20189;-70
2023/01/29 07:45:35;;;;;;;1.10;1.10;;;19.70;47.70;;;;;;4936694;28;20187;-73
2023/01/29 07:48:03;;;;;;;1.30;1.20;;;19.70;47.80;;;;;;4963844;28;20210;-70
2023/01/29 07:50:32;;;;;;;1.77;1.30;;;19.60;47.70;;;;;;4948625;28;20190;-71
2023/01/29 07:52:57;;;;;;;1.60;1.50;;;19.70;47.80;;;;;;4952277;28;20193;-71
2023/01/29 07:55:24;;;;;;;1.27;1.17;;;19.60;47.70;;;;;;4936017;28;20198;-71
2023/01/29 07:58:01;;;;;;;1.75;1.65;;;19.60;47.80;;;;;;4966374;28;20212;-70
2023/01/29 08:00:28;;;;;;;1.38;1.27;;;19.60;47.70;;;;;;4971155;28;20189;-71
2023/01/29 08:03:10;;;;;;;1.50;1.40;;;19.70;47.80;;;;;;4965037;28;20235;-72
2023/01/29 08:05:35;;;;;;;1.60;1.50;;;19.60;47.80;;;;;;4971339;28;20277;-70
2023/01/29 08:08:02;;;;;;;1.80;1.70;;;19.60;47.70;;;;;;4948722;28;20693;-71
2023/01/29 08:10:28;;;;;;;1.77;1.67;;;19.60;47.70;;;;;;4949599;28;20391;-71
2023/01/29 08:13:00;;;;;;;3.60;1.80;;;19.60;47.70;;;;;;4970580;28;20186;-71
2023/01/29 08:15:27;;;;;;;1.70;1.60;;;19.60;47.60;;;;;;4941567;28;20243;-70
2023/01/29 08:17:54;;;;;;;2.58;2.38;;;19.60;47.60;;;;;;4953175;29;20218;-70
2023/01/29 08:20:21;;;;;;;2.50;2.30;;;19.60;47.60;;;;;;4943170;28;20285;-74
2023/01/29 08:22:47;;;;;;;2.38;2.17;;;19.60;47.60;;;;;;4970190;28;20357;-70
2023/01/29 08:25:14;;;;;;;2.55;2.35;;;19.60;47.60;;;;;;4957521;28;20567;-70
2023/01/29 08:27:41;;;;;;;2.78;2.58;;;19.60;47.60;;;;;;4957845;28;20218;-71
2023/01/29 08:30:09;;;;;;;3.40;2.70;;;19.60;47.60;;;;;;4935343;29;20277;-70
2023/01/29 08:32:35;;;;;;;2.65;2.45;;;19.60;47.60;;;;;;4955643;28;20193;-71
2023/01/29 08:35:00;;;;;;;2.90;2.70;;;19.60;47.60;;;;;;4949356;28;20192;-71
2023/01/29 08:37:26;;;;;;;2.58;2.38;;;19.60;47.60;;;;;;4970092;28;20218;-70
2023/01/29 08:39:52;;;;;;;2.30;2.10;;;19.60;47.60;;;;;;4942506;28;20244;-70
2023/01/29 08:42:18;;;;;;;2.50;2.30;;;19.60;47.60;;;;;;4957432;28;20294;-70
2023/01/29 08:44:43;;;;;;;2.88;2.60;;;19.60;47.60;;;;;;4941058;28;20186;-70
2023/01/29 08:47:09;;;;;;;2.28;2.08;;;19.60;47.60;;;;;;4940231;28;20245;-71
2023/01/29 08:49:35;;;;;;;2.50;2.30;;;19.60;47.60;;;;;;4940691;28;20201;-71
2023/01/29 08:52:01;;;;;;;2.55;2.35;;;19.60;47.60;;;;;;4951781;29;20205;-71
2023/01/29 08:54:27;;;;;;;2.47;2.28;;;19.60;47.60;;;;;;4946741;28;20194;-70
2023/01/29 08:56:52;;;;;;;2.45;2.13;;;19.60;48.20;;;;;;4957138;28;20194;-70
2023/01/29 08:59:18;;;;;;;2.10;2.00;;;19.60;47.60;;;;;;4956656;28;20205;-70
2023/01/29 09:01:44;;;;;;;2.60;2.40;;;19.60;47.60;;;;;;4948340;28;20221;-71
2023/01/29 09:04:10;;;;;;;2.40;2.20;;;19.60;47.60;;;;;;4945760;28;20193;-71
2023/01/29 09:06:35;;;;;;;2.38;2.17;;;19.60;47.60;;;;;;4962970;28;20186;-71
2023/01/29 09:09:01;;;;;;;2.20;2.08;;;19.60;47.60;;;;;;4934637;28;20202;-70
2023/01/29 09:11:27;;;;;;;2.20;2.10;;;19.60;47.60;;;;;;4955802;28;20193;-70
2023/01/29 09:13:52;;;;;;;2.42;2.22;;;19.60;47.60;;;;;;4932165;28;20198;-70
2023/01/29 09:16:18;;;;;;;2.40;2.20;;;19.60;47.50;;;;;;4953506;29;20194;-71
2023/01/29 09:18:44;;;;;;;2.03;1.92;;;19.60;47.60;;;;;;4929676;28;20218;-72
2023/01/29 09:21:10;;;;;;;1.83;1.73;;;19.60;47.60;;;;;;4968534;28;20224;-71
2023/01/29 09:23:35;;;;;;;1.90;1.80;;;19.60;47.60;;;;;;4946503;28;20182;-71
2023/01/29 09:26:02;;;;;;;1.85;1.75;;;19.60;47.50;;;;;;4944704;29;20213;-71
2023/01/29 09:28:28;;;;;;;2.08;1.98;;;19.60;47.60;;;;;;4962713;28;20206;-70
2023/01/29 09:30:53;;;;;;;2.60;2.20;;;19.60;47.60;;;;;;4948139;28;20189;-70
2023/01/29 09:33:19;;;;;;;1.95;1.85;;;19.60;47.60;;;;;;4956446;28;20544;-70
2023/01/29 09:35:46;;;;;;;2.45;2.28;;;19.60;47.50;;;;;;4961583;28;20194;-70
2023/01/29 09:38:13;;;;;;;1.90;1.70;;;19.60;47.50;;;;;;4951342;28;20264;-70
2023/01/29 09:41:01;;;;;;;2.40;2.20;;;19.60;47.60;;;;;;4955924;28;20228;-70
2023/01/29 09:44:01;;;;;;;1.88;1.77;;;19.60;47.50;;;;;;4948236;28;20188;-71
2023/01/29 09:46:43;;;;;;;2.15;2.05;;;19.60;47.60;;;;;;4941182;28;20196;-72
2023/01/29 09:49:38;;;;;;;2.08;1.90;;;19.60;47.60;;;;;;4940365;28;20256;-72
2023/01/29 09:52:17;;;;;;;2.30;2.10;;;19.60;47.50;;;;;;4952859;28;20186;-71
2023/01/29 09:55:03;;;;;;;2.15;2.05;;;19.60;47.60;;;;;;4973000;28;20208;-71
2023/01/29 09:58:24;;;;;;;2.25;2.13;;;19.60;47.60;;;;;;4967645;28;20210;-72
2023/01/29 10:01:30;;;;;;;1.80;1.70;;;19.60;47.60;;;;;;4952646;28;20205;-71
2023/01/29 10:04:25;;;;;;;2.22;2.10;;;19.60;47.60;;;;;;4958967;28;20204;-70
2023/01/29 10:07:25;;;;;;;2.05;1.95;;;19.60;47.60;;;;;;4961028;28;20187;-70
2023/01/29 10:10:16;;;;;;;2.10;2.00;;;19.60;47.90;;;;;;4949027;28;20190;-71
2023/01/29 10:13:14;;;;;;;1.92;1.83;;;19.70;47.70;;;;;;4967427;28;20182;-71
2023/01/29 10:16:07;;;;;;;2.30;2.13;;;19.60;47.60;;;;;;4964957;28;20205;-71
2023/01/29 10:18:54;;;;;;;2.00;1.90;;;19.60;47.60;;;;;;4946761;28;20222;-72
2023/01/29 10:21:41;;;;;;;2.10;2.00;;;19.60;47.60;;;;;;4973099;28;20223;-71
2023/01/29 10:24:37;;;;;;;2.88;2.00;;;19.60;47.60;;;;;;4939028;28;20189;-73
2023/01/29 10:27:14;;;;;;;2.10;2.00;;;19.60;47.50;;;;;;4965674;28;20185;-72
2023/01/29 10:29:43;;;;;;;2.30;2.10;;;19.60;47.50;;;;;;4950381;28;20201;-72
2023/01/29 10:32:17;;;;;;;2.05;1.95;;;19.60;47.50;;;;;;4940105;28;20589;-70
2023/01/29 10:35:01;;;;;;;1.70;1.60;;;19.60;47.50;;;;;;4956920;28;20205;-70
2023/01/29 10:37:40;;;;;;;1.70;1.50;;;19.60;47.50;;;;;;4949023;28;20267;-70
2023/01/29 10:40:20;;;;;;;1.83;1.73;;;19.70;47.60;;;;;;4968904;28;20265;-71
2023/01/29 10:42:59;;;;;;;1.70;1.60;;;19.60;47.50;;;;;;4955473;28;20710;-71
2023/01/29 10:45:41;;;;;;;1.80;1.70;;;19.60;47.50;;;;;;4949815;28;20185;-71
2023/01/29 10:48:22;;;;;;;2.38;1.80;;;19.60;47.50;;;;;;4951784;28;20209;-71
2023/01/29 10:51:06;;;;;;;1.85;1.75;;;19.70;47.60;;;;;;4945432;28;20276;-72
2023/01/29 10:53:40;;;;;;;2.83;2.03;;;19.70;47.60;;;;;;4949759;28;20185;-71
2023/01/29 10:56:57;;;;;;;2.40;2.25;;;19.60;47.60;;;;;;4960617;28;20186;-71
2023/01/29 10:59:55;;;;;;;2.40;2.20;;;19.70;47.70;;;;;;4944202;28;20257;-70
2023/01/29 11:02:21;;;;;;;2.25;2.15;;;19.60;47.50;;;;;;4951590;28;20210;-71
2023/01/29 11:04:47;;;;;;;2.30;2.10;;;19.60;47.60;;;;;;4958926;28;20285;-70
2023/01/29 11:07:18;;;;;;;2.00;1.90;;;19.70;47.60;;;;;;4963815;28;20194;-70
2023/01/29 11:09:49;;;;;;;2.30;2.10;;;19.70;47.60;;;;;;4951226;28;20248;-70
2023/01/29 11:12:29;;;;;;;2.03;1.92;;;19.70;47.60;;;;;;4969726;28;20203;-70
2023/01/29 11:15:20;;;;;;;2.00;1.90;;;19.70;47.60;;;;;;4970497;28;20193;-71
2023/01/29 11:18:12;;;;;;;2.00;1.80;;;19.70;47.50;;;;;;4955188;28;20252;-70
2023/01/29 11:20:40;;;;;;;1.80;1.70;;;19.70;47.50;;;;;;4965809;28;20229;-70
2023/01/29 11:23:32;;;;;;;3.10;2.33;;;19.70;47.50;;;;;;4969284;28;20264;-71
2023/01/29 11:25:59;;;;;;;2.17;2.08;;;19.70;47.50;;;;;;4941466;28;20193;-70
2023/01/29 11:28:52;;;;;;;2.38;2.17;;;19.70;47.50;;;;;;4941821;28;20198;-71
2023/01/29 11:31:34;;;;;;;1.90;1.80;;;19.70;47.60;;;;;;4953497;28;20302;-71
2023/01/29 11:34:20;;;;;;;2.60;2.40;;;19.70;47.50;;;;;;4968435;28;20281;-71
2023/01/29 11:36:58;;;;;;;2.17;2.00;;;19.70;47.50;;;;;;4960415;28;20205;-71
2023/01/29 11:39:27;;;;;;;2.13;1.92;;;19.70;47.50;;;;;;4951079;28;20229;-70
2023/01/29 11:42:07;;;;;;;2.10;2.00;;;19.70;47.50;;;;;;4966711;28;20214;-71
2023/01/29 11:44:39;;;;;;;2.13;2.03;;;19.70;47.50;;;;;;4945706;28;20219;-70
2023/01/29 11:47:18;;;;;;;3.17;2.00;;;19.70;47.40;;;;;;4938191;28;20197;-70
2023/01/29 11:49:56;;;;;;;2.22;2.10;;;19.70;47.40;;;;;;4975402;28;20683;-69
2023/01/29 11:52:32;;;;;;;2.05;1.95;;;19.70;47.60;;;;;;4939158;28;20185;-71
2023/01/29 11:55:15;;;;;;;2.00;1.88;;;19.70;47.50;;;;;;4953216;28;20809;-71
2023/01/29 11:57:49;;;;;;;1.80;1.70;;;19.70;47.50;;;;;;4940114;28;20217;-71
2023/01/29 12:00:26;;;;;;;2.25;2.05;;;19.70;47.50;;;;;;4951752;28;20186;-71
2023/01/29 12:03:34;;;;;;;2.10;1.90;;;19.70;47.50;;;;;;4968563;28;20216;-71
2023/01/29 12:06:20;;;;;;;2.08;1.80;;;19.70;47.50;;;;;;4965491;28;20191;-71
2023/01/29 12:08:56;;;;;;;2.30;2.20;;;19.70;47.50;;;;;;4947493;28;20216;-71
2023/01/29 12:11:30;;;;;;;1.90;1.80;;;19.70;47.50;;;;;;4968335;28;20265;-71
2023/01/29 12:14:18;;;;;;;2.03;1.92;;;19.70;47.50;;;;;;4950908;28;20208;-71
2023/01/29 12:16:53;;;;;;;3.45;2.08;;;19.70;47.40;;;;;;4970254;28;20190;-71
2023/01/29 12:19:47;;;;;;;2.65;2.45;;;19.70;47.50;;;;;;4950477;28;20324;-71
2023/01/29 12:22:34;;;;;;;2.55;2.25;;;19.70;47.60;;;;;;4950647;28;20209;-72
2023/01/29 12:25:18;;;;;;;2.17;1.98;;;19.70;47.40;;;;;;4948181;28;20186;-71
2023/01/29 12:28:02;;;;;;;2.80;1.90;;;19.70;47.50;;;;;;4939563;28;20212;-71
2023/01/29 12:30:49;;;;;;;2.30;2.20;;;19.70;47.50;;;;;;4947747;28;20695;-71
2023/01/29 12:33:49;;;;;;;3.85;2.10;;;19.70;47.50;;;;;;4971851;28;20248;-72
2023/01/29 12:36:32;;;;;;;2.33;2.22;;;19.70;47.60;;;;;;4966230;28;20195;-71
2023/01/29 12:38:58;;;;;;;2.53;2.33;;;19.70;47.60;;;;;;4956759;28;20249;-72
2023/01/29 12:41:45;;;;;;;2.38;2.20;;;19.70;47.60;;;;;;4936765;28;20210;-72
2023/01/29 12:44:23;;;;;;;2.40;2.20;;;19.70;47.60;;;;;;4947474;29;20249;-70
2023/01/29 12:46:57;;;;;;;2.60;2.30;;;19.70;47.60;;;;;;4951488;28;20313;-71
2023/01/29 12:49:32;;;;;;;2.38;2.17;;;19.60;47.50;;;;;;4951938;28;20232;-71
2023/01/29 12:52:25;;;;;;;2.45;2.25;;;19.70;47.50;;;;;;4953280;28;20200;-71
2023/01/29 12:54:56;;;;;;;1.98;1.88;;;19.70;47.50;;;;;;4965523;28;20193;-71
2023/01/29 12:57:47;;;;;;;2.47;2.15;;;19.60;47.40;;;;;;4955180;28;20216;-71
2023/01/29 13:00:20;;;;;;;2.40;2.20;;;19.70;47.60;;;;;;4970645;28;20235;-72
2023/01/29 13:02:48;;;;;;;2.28;2.10;;;19.70;47.50;;;;;;4952259;28;20221;-71
2023/01/29 13:05:35;;;;;;;2.40;2.20;;;19.70;47.50;;;;;;4952715;28;20182;-71
2023/01/29 13:08:12;;;;;;;2.10;1.90;;;19.70;47.50;;;;;;4949528;28;20586;-72
2023/01/29 13:10:48;;;;;;;1.88;1.77;;;19.60;47.40;;;;;;4970599;28;20273;-71
2023/01/29 13:13:51;;;;;;;2.28;2.08;;;19.70;47.40;;;;;;4956243;28;20217;-71
2023/01/29 13:16:26;;;;;;;2.15;2.03;;;19.70;47.50;;;;;;4933002;28;20197;-71
2023/01/29 13:19:01;;;;;;;2.38;2.17;;;19.70;47.50;;;;;;4966434;28;20249;-71
2023/01/29 13:21:36;;;;;;;2.00;1.90;;;19.70;47.50;;;;;;4966657;28;20241;-71
2023/01/29 13:24:11;;;;;;;1.95;1.75;;;19.70;47.50;;;;;;4969038;28;20185;-71
2023/01/29 13:26:39;;;;;;;2.92;2.20;;;19.70;47.50;;;;;;4948384;28;20189;-72
2023/01/29 13:29:05;;;;;;;2.50;2.30;;;19.60;47.40;;;;;;4948659;28;20205;-71
2023/01/29 13:31:39;;;;;;;2.10;2.00;;;19.70;47.50;;;;;;4948811;28;20191;-71
2023/01/29 13:34:14;;;;;;;1.90;1.70;;;19.70;47.50;;;;;;4950485;28;20196;-71
2023/01/29 13:36:48;;;;;;;2.10;2.00;;;19.60;47.40;;;;;;4935094;28;20196;-72
2023/01/29 13:39:32;;;;;;;2.42;2.22;;;19.70;47.40;;;;;;4962515;28;20300;-71
2023/01/29 13:42:01;;;;;;;2.33;2.13;;;19.70;47.50;;;;;;4951274;28;20225;-71
2023/01/29 13:44:36;;;;;;;2.83;2.03;;;19.60;47.40;;;;;;4950203;28;20190;-69
2023/01/29 13:47:07;;;;;;;1.90;1.80;;;19.70;47.50;;;;;;4955125;28;20225;-72
2023/01/29 13:49:55;;;;;;;2.20;1.83;;;19.60;47.40;;;;;;4961243;28;20186;-71
2023/01/29 13:52:42;;;;;;;2.90;2.15;;;19.60;47.40;;;;;;4969056;28;20181;-71
2023/01/29 13:55:13;;;;;;;1.90;1.80;;;19.60;47.40;;;;;;4962106;28;20194;-71
2023/01/29 13:57:45;;;;;;;2.13;2.00;;;19.60;47.30;;;;;;4961155;28;20711;-71
2023/01/29 14:00:20;;;;;;;2.00;1.90;;;19.60;47.40;;;;;;4952299;28;20190;-72
2023/01/29 14:03:03;;;;;;;2.30;2.10;;;19.60;47.40;;;;;;4962334;28;20214;-71